Search for airport 
image banner adimage banner adimage banner ad
image banner ad

21CA - Oxy Usa Inc Huntington Beach

Located in Huntington Beach, United States

ICAO - 21CA, IATA -

Data provided by Airmate  

General information

Coordinates: N33°41'2" W118°1'54"
Elevation is 40 feet MSL.
Magnetic variation is 14° East
View others Airports in California

Operational data

Special qualification required
Current time UTC:
Current local time:
Weather at : KSLI - Los Alamitos Aaf ( 12 km )
METAR: KSLI 141158Z AUTO 00000KT 10SM CLR 15/15 A2989 RMK AO2 SLP125 T01520152 10177 20148 58006
TAF: TAF KSLI 140502Z 1405/1511 VRB06KT 9999 SKC QNH2982INS TX28/1423Z TN15/1413Z
View NOTAMs / SUP AIP / TFR affecting this airport [VIEW]
Communications frequencies: [VIEW]

Runways:

Airport contact information

Address: Huntington Beach United States

Satellite view of 21CA